Terminal Aerodrome Forecast
Issued by NWS Cleveland, OH

Home | Current Version | Previous Version | Text Only | Print | Product List | Glossary On
Versions: 1 2 3 4 5 6 7 8 9 10 11 12
945
FTUS41 KCLE 231120
TAFCAK
TAF
KCAK 231120Z 2312/2412 11008KT P6SM SKC
     FM231600 13011KT P6SM BKN250
     FM232200 15011KT P6SM SCT070 BKN100
     FM240500 12010KT P6SM OVC040=

USA.gov is the U.S. government's official web portal to all federal, state and local government web resources and services.